Sauk Centre, MN

11:09 PM CST on December 15, 2019 (GMT -0600)
Sauk Centre

Weather History for KD39 - October, 2019

Change the Weather History Date:

Thursday, October 31, 2019

  Actual Average (WUND) Record (WUND)
Temperature  
Mean Temperature 30 °F -  
Max Temperature 36 °F - - (-1)
Min Temperature 23 °F - - (-1)
Degree Days  
Heating Degree Days 36    
Moisture  
Dew Point 16 °F    
Average Humidity 60    
Maximum Humidity 74    
Minimum Humidity 41    
Precipitation  
Precipitation 0.00 in - - ()
Sea Level Pressure  
Sea Level Pressure 30.05 in    
Wind  
Wind Speed 5 mph ()    
Max Wind Speed 13 mph    
Max Gust Speed 17 mph    
Visibility 10.0 miles    
Events      
Averages and records for this station are not official NWS values.
T = Trace of Precipitation, MM = Missing Value Source: Averaged Metar Reports

Daily Weather History Graph

Daily Weather History Graph

Search for Another Location

Airport or City:

Astronomy

Oct. 31, 2019 Rise Set
Actual Time 7:57 AM CDT 6:08 PM CDT
Civil Twilight 7:27 AM CDT 6:38 PM CDT
Nautical Twilight 6:51 AM CDT 7:13 PM CDT
Astronomical Twilight 6:17 AM CDT 7:48 PM CDT
Moon 11:56 AM CDT (10/31) 8:55 PM CDT (10/31)
Length of Visible Light 11h 11m
Length of Day
10h 10m
Waxing Crescent, 16% of the Moon is Illuminated
Oct 31
Waxing Crescent
Nov 4
First Quarter
Nov 12
Full
Nov 19
Last Quarter
Nov 26
New

Hourly Weather History & Observations

Time (CDT) Temp. Windchill Dew Point Humidity Pressure Visibility Wind Dir Wind Speed Gust Speed Precip Events Conditions
12:16 AM 24.6 °F 17.7 °F 14.5 °F 66% 30.17 in 10.0 mi North 5.8 mph - N/A   Overcast
12:35 AM 24.4 °F 17.5 °F 14.5 °F 66% 30.17 in 10.0 mi NNW 5.8 mph - N/A   Overcast
12:36 AM 24.3 °F 16.3 °F 14.5 °F 67% 30.17 in 10.0 mi NNW 6.9 mph - N/A   Overcast
12:55 AM 24.4 °F 18.6 °F 14.9 °F 67% 30.17 in 10.0 mi NNW 4.6 mph - N/A   Overcast
12:56 AM 24.4 °F 20.1 °F 14.7 °F 67% 30.17 in 10.0 mi North 3.5 mph - N/A   Overcast
1:18 AM 23.9 °F 15.8 °F 14.4 °F 67% 30.17 in 10.0 mi NNW 6.9 mph - N/A   Overcast
1:36 AM 23.9 °F 16.8 °F 14.5 °F 67% 30.17 in 10.0 mi NNW 5.8 mph - N/A   Overcast
1:55 AM 23.9 °F 18.0 °F 14.5 °F 67% 30.17 in 10.0 mi NW 4.6 mph - N/A   Overcast
1:56 AM 23.9 °F 18.0 °F 14.5 °F 67% 30.17 in 10.0 mi NNW 4.6 mph - N/A   Overcast
2:15 AM 23.7 °F 19.3 °F 14.4 °F 67% 30.17 in 10.0 mi NW 3.5 mph - N/A   Overcast
2:38 AM 23.9 °F 18.0 °F 14.0 °F 66% 30.16 in 10.0 mi North 4.6 mph - N/A   Overcast
2:56 AM 23.7 °F 16.6 °F 14.0 °F 66% 30.16 in 10.0 mi NNW 5.8 mph - N/A   Overcast
3:16 AM 23.7 °F 16.6 °F 14.0 °F 66% 30.16 in 10.0 mi NNW 5.8 mph - N/A   Overcast
3:35 AM 23.4 °F - 13.5 °F 66% 30.15 in 10.0 mi Calm Calm - N/A   Overcast
3:36 AM 23.4 °F - 13.5 °F 66% 30.15 in 10.0 mi Calm Calm - N/A   Overcast
3:55 AM 23.2 °F 16.0 °F 13.6 °F 67% 30.15 in 10.0 mi WNW 5.8 mph - N/A   Overcast
4:16 AM 23.2 °F - 14.0 °F 68% 30.14 in 10.0 mi Calm Calm - N/A   Overcast
4:36 AM 23.0 °F 18.4 °F 13.8 °F 68% 30.13 in 10.0 mi NW 3.5 mph - N/A   Overcast
4:55 AM 23.0 °F 18.4 °F 14.0 °F 68% 30.14 in 10.0 mi NNW 3.5 mph - N/A   Overcast
4:56 AM 23.0 °F 18.4 °F 14.0 °F 68% 30.14 in 10.0 mi NW 3.5 mph - N/A   Overcast
5:15 AM 23.0 °F 17.0 °F 13.8 °F 68% 30.13 in 10.0 mi NNW 4.6 mph - N/A   Overcast
5:37 AM 23.0 °F 17.0 °F 14.2 °F 69% 30.13 in 10.0 mi West 4.6 mph - N/A   Overcast
5:55 AM 23.0 °F 14.7 °F 14.2 °F 69% 30.13 in 10.0 mi NNW 6.9 mph - N/A   Overcast
6:15 AM 23.0 °F 17.0 °F 14.0 °F 68% 30.13 in 10.0 mi West 4.6 mph - N/A   Overcast
6:16 AM 23.0 °F 17.0 °F 14.2 °F 69% 30.13 in 10.0 mi West 4.6 mph - N/A   Overcast
6:35 AM 23.0 °F 18.4 °F 14.4 °F 70% 30.13 in 10.0 mi NNW 3.5 mph - N/A   Overcast
6:36 AM 23.0 °F 18.4 °F 14.4 °F 70% 30.13 in 10.0 mi NNW 3.5 mph - N/A   Overcast
6:58 AM 23.4 °F - 14.7 °F 70% 30.12 in 10.0 mi Calm Calm - N/A   Overcast
7:16 AM 23.5 °F 19.1 °F 15.3 °F 71% 30.11 in 10.0 mi West 3.5 mph - N/A   Overcast
7:35 AM 23.2 °F - 15.1 °F 71% 30.11 in 10.0 mi Calm Calm - N/A   Overcast
7:55 AM 23.0 °F - 15.3 °F 72% 30.11 in 10.0 mi Calm Calm - N/A   Overcast
7:56 AM 23.0 °F - 15.1 °F 72% 30.11 in 10.0 mi Calm Calm - N/A   Overcast
8:15 AM 23.0 °F 17.0 °F 15.8 °F 74% 30.11 in 10.0 mi West 4.6 mph - N/A   Overcast
8:20 AM 23.4 °F - 15.1 °F 71% 30.11 in 10.0 mi Calm Calm - N/A   Overcast
8:37 AM 23.5 °F - 14.9 °F 70% 30.11 in 10.0 mi Calm Calm - N/A   Overcast
8:55 AM 23.9 °F - 15.3 °F 70% 30.11 in 10.0 mi Calm Calm - N/A   Overcast
9:15 AM 23.9 °F 19.5 °F 15.1 °F 69% 30.11 in 10.0 mi WSW 3.5 mph - N/A   Overcast
9:16 AM 23.9 °F 19.5 °F 15.1 °F 69% 30.11 in 10.0 mi West 3.5 mph - N/A   Overcast
9:35 AM 23.9 °F - 14.7 °F 68% 30.11 in 10.0 mi Calm Calm - N/A   Mostly Cloudy
9:36 AM 23.7 °F - 14.7 °F 69% 30.11 in 10.0 mi Calm Calm - N/A   Mostly Cloudy
9:58 AM 25.5 °F 18.7 °F 15.4 °F 66% 30.11 in 10.0 mi WNW 5.8 mph - N/A   Scattered Clouds
10:16 AM 25.7 °F 20.1 °F 15.6 °F 66% 30.10 in 10.0 mi WSW 4.6 mph - N/A   Scattered Clouds
10:35 AM 26.2 °F 22.1 °F 15.4 °F 64% 30.10 in 10.0 mi West 3.5 mph - N/A   Clear
10:36 AM 26.4 °F 19.8 °F 15.6 °F 64% 30.10 in 10.0 mi West 5.8 mph - N/A   Clear
10:55 AM 27.1 °F 21.8 °F 15.8 °F 62% 30.09 in 10.0 mi West 4.6 mph - N/A   Clear
10:56 AM 27.1 °F 20.7 °F 16.0 °F 63% 30.09 in 10.0 mi WNW 5.8 mph - N/A   Clear
11:15 AM 28.0 °F 22.8 °F 16.2 °F 61% 30.09 in 10.0 mi West 4.6 mph - N/A   Clear
11:20 AM 28.2 °F 22.0 °F 16.5 °F 62% 30.09 in 10.0 mi West 5.8 mph - N/A   Clear
11:37 AM 28.8 °F 23.7 °F 16.5 °F 60% 30.08 in 10.0 mi West 4.6 mph - N/A   Clear
11:55 AM 29.3 °F 24.3 °F 16.7 °F 59% 30.07 in 10.0 mi West 4.6 mph - N/A   Clear
12:15 PM 30.0 °F 21.7 °F 17.2 °F 59% 30.06 in 10.0 mi West 9.2 mph - N/A   Clear
12:35 PM 30.9 °F 23.5 °F 18.0 °F 59% 30.05 in 10.0 mi SW 8.1 mph - N/A   Clear
12:36 PM 31.1 °F 23.7 °F 18.0 °F 58% 30.05 in 10.0 mi SW 8.1 mph - N/A   Clear
12:59 PM 32.2 °F 25.8 °F 17.8 °F 55% 30.04 in 10.0 mi West 6.9 mph 17.3 mph N/A   Clear
1:16 PM 32.5 °F 25.5 °F 17.6 °F 54% 30.04 in 10.0 mi WSW 8.1 mph - N/A   Clear
1:35 PM 33.3 °F 26.4 °F 16.9 °F 51% 30.03 in 10.0 mi WSW 8.1 mph - N/A   Clear
1:36 PM 33.3 °F 25.7 °F 16.9 °F 51% 30.03 in 10.0 mi WSW 9.2 mph - N/A   Clear
1:55 PM 33.3 °F 25.7 °F 14.9 °F 47% 30.02 in 10.0 mi West 9.2 mph 17.3 mph N/A   Clear
1:56 PM 33.4 °F 24.8 °F 14.9 °F 47% 30.02 in 10.0 mi West 11.5 mph 17.3 mph N/A   Clear
2:15 PM 33.8 °F 24.8 °F 16.5 °F 49% 30.01 in 10.0 mi West 12.7 mph 16.1 mph N/A   Clear
2:20 PM 34.2 °F 26.8 °F 16.7 °F 49% 30.01 in 10.0 mi West 9.2 mph 16.1 mph N/A   Clear
2:37 PM 34.7 °F 28.1 °F 17.6 °F 50% 30.00 in 10.0 mi West 8.1 mph 16.1 mph N/A   Clear
2:55 PM 34.7 °F 25.9 °F 17.4 °F 49% 29.99 in 10.0 mi West 12.7 mph - N/A   Clear
3:15 PM 34.9 °F 28.3 °F 17.4 °F 49% 29.99 in 10.0 mi SW 8.1 mph - N/A   Clear
3:35 PM 35.6 °F 28.6 °F 16.5 °F 46% 29.99 in 10.0 mi West 9.2 mph 16.1 mph N/A   Clear
3:59 PM 36.0 °F 29.6 °F 15.8 °F 44% 29.97 in 10.0 mi SSW 8.1 mph - N/A   Clear
4:16 PM 36.0 °F 28.5 °F 15.8 °F 44% 29.97 in 10.0 mi WSW 10.4 mph - N/A   Clear
4:36 PM 36.3 °F 30.1 °F 15.1 °F 42% 29.97 in 10.0 mi WSW 8.1 mph - N/A   Clear
4:55 PM 36.0 °F 30.3 °F 14.4 °F 41% 29.97 in 10.0 mi SW 6.9 mph - N/A   Clear
4:56 PM 36.0 °F 30.3 °F 14.5 °F 42% 29.97 in 10.0 mi SW 6.9 mph - N/A   Clear
5:15 PM 35.4 °F 29.0 °F 14.0 °F 41% 29.96 in 10.0 mi SW 8.1 mph - N/A   Clear
5:19 PM 35.2 °F 27.6 °F 14.2 °F 42% 29.97 in 10.0 mi SW 10.4 mph - N/A   Clear
5:37 PM 34.3 °F 28.4 °F 14.4 °F 44% 29.97 in 10.0 mi SW 6.9 mph - N/A   Clear
5:55 PM 32.0 °F 26.4 °F 15.4 °F 51% 29.96 in 10.0 mi SSW 5.8 mph - N/A   Clear
6:15 PM 30.6 °F 24.7 °F 16.0 °F 55% 29.96 in 10.0 mi South 5.8 mph - N/A   Clear
6:16 PM 30.6 °F 24.7 °F 15.8 °F 54% 29.96 in 10.0 mi South 5.8 mph - N/A   Clear
6:35 PM 29.5 °F 23.4 °F 15.3 °F 55% 29.96 in 10.0 mi South 5.8 mph - N/A   Clear
6:36 PM 29.3 °F 24.3 °F 15.3 °F 56% 29.96 in 10.0 mi South 4.6 mph - N/A   Clear
6:59 PM 28.2 °F 22.0 °F 15.8 °F 60% 29.96 in 10.0 mi South 5.8 mph - N/A   Clear
7:16 PM 27.9 °F 22.6 °F 16.2 °F 62% 29.96 in 10.0 mi SSE 4.6 mph - N/A   Scattered Clouds
7:36 PM 27.7 °F 22.4 °F 17.2 °F 65% 29.96 in 10.0 mi South 4.6 mph - N/A   Scattered Clouds
7:55 PM 27.9 °F 22.6 °F 17.6 °F 65% 29.96 in 10.0 mi South 4.6 mph - N/A   Mostly Cloudy
7:56 PM 27.9 °F 22.6 °F 17.8 °F 66% 29.96 in 10.0 mi South 4.6 mph - N/A   Mostly Cloudy
8:15 PM 28.9 °F 22.8 °F 19.6 °F 68% 29.96 in 10.0 mi South 5.8 mph - N/A   Overcast
8:19 PM 30.2 °F 23.4 °F 18.0 °F 60% 29.95 in 10.0 mi South 6.9 mph - N/A   Overcast
8:37 PM 32.2 °F 25.8 °F 16.2 °F 52% 29.95 in 10.0 mi SSW 6.9 mph - N/A   Overcast
8:55 PM 32.5 °F 27.1 °F 16.3 °F 51% 29.95 in 10.0 mi SSW 5.8 mph - N/A   Overcast
9:15 PM 32.4 °F 26.9 °F 16.5 °F 52% 29.94 in 10.0 mi SSW 5.8 mph - N/A   Overcast
9:16 PM 32.5 °F 27.1 °F 16.5 °F 52% 29.94 in 10.0 mi SSW 5.8 mph - N/A   Overcast
9:35 PM 32.9 °F 26.7 °F 16.7 °F 51% 29.94 in 10.0 mi SSW 6.9 mph - N/A   Overcast
9:36 PM 32.9 °F 26.7 °F 16.7 °F 51% 29.94 in 10.0 mi SSW 6.9 mph - N/A   Overcast
9:59 PM 33.4 °F 26.6 °F 16.7 °F 50% 29.93 in 10.0 mi SSW 8.1 mph - N/A   Overcast
10:16 PM 33.4 °F 25.9 °F 16.3 °F 50% 29.92 in 10.0 mi SSW 9.2 mph - N/A   Mostly Cloudy
10:36 PM 33.8 °F 27.0 °F 16.2 °F 49% 29.92 in 10.0 mi SSW 8.1 mph - N/A   Overcast
10:55 PM 33.8 °F 26.4 °F 16.2 °F 49% 29.91 in 10.0 mi SSW 9.2 mph - N/A   Overcast
10:56 PM 33.8 °F 26.4 °F 16.3 °F 49% 29.91 in 10.0 mi SSW 9.2 mph - N/A   Overcast
11:15 PM 33.4 °F 25.9 °F 16.7 °F 50% 29.91 in 10.0 mi SSW 9.2 mph - N/A   Overcast
11:19 PM 33.3 °F 25.7 °F 16.5 °F 50% 29.90 in 10.0 mi SSW 9.2 mph - N/A   Overcast
11:36 PM 32.4 °F 25.3 °F 17.4 °F 54% 29.90 in 10.0 mi SSW 8.1 mph - N/A   Scattered Clouds
11:56 PM 32.9 °F 24.1 °F 17.1 °F 52% 29.90 in 10.0 mi SSW 11.5 mph - N/A   Mostly Cloudy